Time;durP1;ratioP1;P1;durP2;ratioP2;P2;SDS_P1;SDS_P2;PMS_P1;PMS_P2;Temp;Humidity;BMP_temperature;BMP_pressure;BME280_temperature;BME280_humidity;BME280_pressure;Samples;Min_cycle;Max_cycle;Signal;HPM_P1;HPM_P2
2021/08/09 00:00:44;;;;;;;3.57;1.37;;;;;;;16.39;83.56;98875.99;262700;1090;22785;-72
2021/08/09 00:06:01;;;;;;;2.00;1.40;;;;;;;16.30;83.42;98867.92;263182;1089;22773;-71
2021/08/09 00:11:06;;;;;;;1.95;1.45;;;;;;;16.24;83.37;98867.31;262732;1089;22851;-71
2021/08/09 00:16:10;;;;;;;3.75;1.90;;;;;;;16.23;83.97;98871.13;262983;1088;27099;-71
2021/08/09 00:21:17;;;;;;;2.90;1.80;;;;;;;16.28;84.46;98848.52;262977;1089;23506;-71
2021/08/09 00:26:23;;;;;;;3.20;1.70;;;;;;;16.34;84.27;98865.35;262911;1090;22778;-72
2021/08/09 00:31:27;;;;;;;1.60;1.40;;;;;;;16.35;84.20;98875.05;262817;1088;22782;-72
2021/08/09 00:36:31;;;;;;;3.53;1.83;;;;;;;16.32;84.25;98864.89;262998;1089;22864;-71
2021/08/09 00:41:35;;;;;;;2.83;1.73;;;;;;;16.34;84.46;98868.87;262850;1089;25800;-72
2021/08/09 00:46:38;;;;;;;2.43;1.80;;;;;;;16.37;84.54;98868.21;262954;1088;26239;-72
2021/08/09 00:51:42;;;;;;;2.15;1.95;;;;;;;16.32;83.99;98883.82;262805;1089;23005;-73
2021/08/09 00:56:48;;;;;;;2.85;2.30;;;;;;;16.12;83.46;98878.00;262728;1090;24055;-72
2021/08/09 01:01:52;;;;;;;5.05;2.40;;;;;;;16.02;83.74;98883.73;262888;1088;26257;-71
2021/08/09 01:06:56;;;;;;;4.20;2.07;;;;;;;15.99;84.39;98885.19;262891;1090;22903;-71
2021/08/09 01:12:10;;;;;;;3.07;2.37;;;;;;;15.98;84.28;98893.63;262914;1089;25911;-72
2021/08/09 01:17:18;;;;;;;5.25;3.00;;;;;;;15.85;84.14;98890.78;262972;1089;24300;-72
2021/08/09 01:22:46;;;;;;;5.30;3.40;;;;;;;15.82;84.56;98901.41;263010;1090;24513;-71
2021/08/09 01:28:10;;;;;;;3.23;2.75;;;;;;;15.74;84.70;98908.40;262835;1090;22785;-72
2021/08/09 01:33:36;;;;;;;3.85;3.00;;;;;;;15.65;84.63;98910.30;262892;1089;24305;-72
2021/08/09 01:38:53;;;;;;;6.30;3.23;;;;;;;15.59;84.72;98914.28;262590;1089;25950;-72
2021/08/09 01:43:58;;;;;;;3.37;2.67;;;;;;;15.53;84.54;98917.14;262954;1090;25777;-71
2021/08/09 01:49:15;;;;;;;4.40;3.20;;;;;;;15.45;84.86;98920.63;263029;1090;22849;-72
2021/08/09 01:54:27;;;;;;;4.73;2.50;;;;;;;15.38;85.03;98918.39;262569;1089;22825;-72
2021/08/09 01:59:40;;;;;;;3.10;2.30;;;;;;;15.33;84.92;98904.25;262395;1089;22798;-71
2021/08/09 02:04:44;;;;;;;4.03;2.60;;;;;;;15.27;85.24;98903.62;262574;1089;23593;-72
2021/08/09 02:09:48;;;;;;;5.25;3.10;;;;;;;15.24;85.39;98917.75;262616;1090;24499;-72
2021/08/09 02:15:01;;;;;;;4.30;3.23;;;;;;;15.27;85.62;98910.93;262903;1090;22773;-71
2021/08/09 02:20:30;;;;;;;4.60;3.30;;;;;;;15.27;85.63;98938.70;262546;1089;22930;-73
2021/08/09 02:25:40;;;;;;;6.17;2.97;;;;;;;15.26;85.67;98947.90;262914;1089;22798;-72
2021/08/09 02:31:02;;;;;;;4.85;3.35;;;;;;;15.30;86.00;98948.86;262574;1089;22771;-72
2021/08/09 02:36:12;;;;;;;4.40;3.40;;;;;;;15.33;86.11;98953.65;262991;1089;22777;-72
2021/08/09 02:41:24;;;;;;;6.20;3.70;;;;;;;15.36;86.27;98960.30;263022;1090;24371;-72
2021/08/09 02:46:33;;;;;;;5.30;3.50;;;;;;;15.38;85.87;98971.59;262613;1089;22776;-72
2021/08/09 02:51:36;;;;;;;6.73;3.63;;;;;;;15.32;85.07;98981.74;262718;1089;22835;-72
2021/08/09 02:56:40;;;;;;;6.33;3.67;;;;;;;15.31;85.52;98998.25;262600;1088;25835;-71
2021/08/09 03:01:44;;;;;;;6.60;4.70;;;;;;;15.25;85.45;99010.28;262630;1090;22931;-72
2021/08/09 03:06:56;;;;;;;5.45;4.15;;;;;;;15.18;85.43;99024.23;262605;1089;22811;-72
2021/08/09 03:12:02;;;;;;;8.77;6.07;;;;;;;15.21;86.04;99031.72;262492;1089;24476;-73
2021/08/09 03:17:21;;;;;;;5.15;3.70;;;;;;;15.26;86.03;99028.86;262958;1089;25890;-72
2021/08/09 03:22:37;;;;;;;4.93;4.07;;;;;;;15.33;86.31;99056.22;262604;1089;22786;-72
2021/08/09 03:27:42;;;;;;;8.40;3.80;;;;;;;15.34;86.07;99059.70;262951;1089;24319;-72
2021/08/09 03:32:45;;;;;;;8.90;3.80;;;;;;;15.34;85.57;99059.70;262953;1089;26025;-72
2021/08/09 03:37:56;;;;;;;5.25;3.80;;;;;;;15.34;85.65;99075.89;262960;1089;22853;-71
2021/08/09 03:42:59;;;;;;;5.67;4.43;;;;;;;15.37;85.58;99069.86;263028;1089;23214;-72
2021/08/09 03:48:06;;;;;;;8.75;3.75;;;;;;;15.39;85.57;99070.36;262844;1089;24337;-72
2021/08/09 03:53:10;;;;;;;3.90;2.70;;;;;;;15.31;84.86;99076.52;262934;1089;22759;-73
2021/08/09 03:58:14;;;;;;;4.50;2.90;;;;;;;15.23;84.93;99072.67;262915;1089;22806;-72
2021/08/09 04:03:18;;;;;;;2.80;2.10;;;;;;;15.19;85.01;99064.42;263240;1089;24071;-72
2021/08/09 04:08:22;;;;;;;4.93;2.80;;;;;;;15.18;85.04;99045.81;262900;1089;24470;-73
2021/08/09 04:13:25;;;;;;;2.97;2.60;;;;;;;15.22;85.32;99039.50;262633;1089;25940;-73
2021/08/09 04:18:32;;;;;;;5.35;3.30;;;;;;;15.27;85.45;99059.36;263042;1089;25799;-72
2021/08/09 04:23:36;;;;;;;4.00;2.57;;;;;;;15.26;85.17;99042.35;262890;1088;22844;-73
2021/08/09 04:29:06;;;;;;;5.80;4.00;;;;;;;15.21;85.12;99040.60;262813;1090;25726;-72
2021/08/09 04:34:38;;;;;;;5.20;3.17;;;;;;;15.22;85.36;99044.90;262634;1088;25841;-72
2021/08/09 04:39:56;;;;;;;5.50;3.10;;;;;;;15.33;85.60;99058.91;263048;1089;23083;-72
2021/08/09 04:45:05;;;;;;;4.35;2.75;;;;;;;15.46;85.67;99050.98;262998;1089;22602;-72
2021/08/09 04:50:10;;;;;;;3.65;2.75;;;;;;;15.53;85.50;99060.23;263024;1089;23133;-73
2021/08/09 04:55:14;;;;;;;5.15;3.50;;;;;;;15.65;85.80;99066.92;262890;1088;24500;-71
2021/08/09 05:00:17;;;;;;;3.70;3.05;;;;;;;15.84;86.02;99078.27;263080;1089;25912;-72
2021/08/09 05:05:22;;;;;;;6.85;3.00;;;;;;;16.00;85.66;99086.69;262963;1090;26018;-72
2021/08/09 05:10:27;;;;;;;5.23;3.33;;;;;;;16.15;85.33;99088.14;262934;1090;25812;-72
2021/08/09 05:15:34;;;;;;;5.20;2.95;;;;;;;16.33;85.81;99088.94;263023;1088;22771;-72
2021/08/09 05:20:51;;;;;;;3.50;2.40;;;;;;;16.53;85.42;99086.70;262871;1089;22798;-73
2021/08/09 05:26:10;;;;;;;4.00;2.40;;;;;;;16.77;85.65;99088.88;262971;1088;25742;-72
2021/08/09 05:31:24;;;;;;;4.10;2.65;;;;;;;16.95;85.24;99088.88;263006;1088;22819;-72
2021/08/09 05:36:39;;;;;;;4.85;2.80;;;;;;;17.07;84.44;99094.41;262876;1089;22781;-72
2021/08/09 05:41:44;;;;;;;4.67;2.70;;;;;;;17.09;83.19;99100.28;263432;1089;22856;-70
2021/08/09 05:46:50;;;;;;;4.05;2.70;;;;;;;17.07;83.09;99106.02;263158;1090;22834;-71
2021/08/09 05:51:56;;;;;;;3.05;2.40;;;;;;;17.26;83.82;99116.48;263545;1089;22964;-70
2021/08/09 05:57:01;;;;;;;2.93;2.60;;;;;;;17.53;83.90;99109.03;264478;1088;24203;-69
2021/08/09 06:02:04;;;;;;;4.70;2.40;;;;;;;17.73;82.83;99114.82;263447;1088;22799;-70
2021/08/09 06:07:17;;;;;;;3.50;2.20;;;;;;;17.82;81.48;99125.60;263432;1089;22933;-71
2021/08/09 06:12:43;;;;;;;2.47;1.80;;;;;;;17.86;81.20;99131.95;262865;1090;22833;-70
2021/08/09 06:17:47;;;;;;;3.85;2.05;;;;;;;17.91;80.82;99132.59;262842;1088;22975;-71
2021/08/09 06:22:51;;;;;;;4.60;2.00;;;;;;;17.95;80.01;99125.39;263021;1088;22963;-71
2021/08/09 06:27:54;;;;;;;2.30;2.10;;;;;;;18.05;80.13;99120.72;263279;1089;25948;-71
2021/08/09 06:32:59;;;;;;;2.95;2.00;;;;;;;18.20;80.07;99124.73;263050;1089;23404;-72
2021/08/09 06:38:07;;;;;;;3.35;2.00;;;;;;;18.31;79.51;99123.20;263138;1089;24174;-71
2021/08/09 06:43:10;;;;;;;2.05;1.70;;;;;;;18.40;79.18;99125.88;263430;1090;22820;-72
2021/08/09 06:48:15;;;;;;;2.85;1.50;;;;;;;18.55;78.83;99130.69;263267;1088;22861;-71
2021/08/09 06:53:19;;;;;;;2.15;1.50;;;;;;;18.71;78.63;99127.35;263667;1090;25911;-73
2021/08/09 06:58:23;;;;;;;3.55;1.50;;;;;;;18.86;77.67;99128.63;263651;1089;25986;-73
2021/08/09 07:03:27;;;;;;;1.25;1.00;;;;;;;19.00;76.41;99129.16;263722;1089;25774;-72
2021/08/09 07:08:32;;;;;;;3.57;1.17;;;;;;;19.16;76.22;99132.02;263783;1088;22673;-72
2021/08/09 07:13:35;;;;;;;1.57;1.23;;;;;;;19.28;75.01;99137.47;263445;1089;22782;-71
2021/08/09 07:18:40;;;;;;;1.00;0.80;;;;;;;19.45;74.48;99138.39;263641;1088;22772;-71
2021/08/09 07:23:53;;;;;;;1.35;0.90;;;;;;;19.57;72.47;99126.73;263661;1090;22808;-72
2021/08/09 07:29:11;;;;;;;1.00;0.80;;;;;;;19.68;71.54;99118.92;263633;1089;22769;-73
2021/08/09 07:34:15;;;;;;;1.13;1.00;;;;;;;19.79;70.39;99123.56;263929;1088;25918;-72
2021/08/09 07:39:19;;;;;;;1.10;0.83;;;;;;;19.90;69.81;99134.78;264039;1088;23383;-72
2021/08/09 07:44:23;;;;;;;2.55;0.85;;;;;;;20.06;69.28;99129.41;263563;1088;23563;-73
2021/08/09 07:49:27;;;;;;;1.80;0.70;;;;;;;20.17;68.22;99127.83;263298;1088;24061;-71
2021/08/09 07:54:30;;;;;;;1.50;0.90;;;;;;;20.30;67.25;99130.49;265020;1089;25166;-72
2021/08/09 07:59:34;;;;;;;1.07;0.80;;;;;;;20.45;66.69;99129.76;263339;1088;26117;-71
2021/08/09 08:04:38;;;;;;;2.40;0.90;;;;;;;20.53;66.18;99135.42;263383;1090;23378;-71
2021/08/09 08:09:42;;;;;;;0.77;0.77;;;;;;;20.62;65.47;99142.30;263862;1088;24107;-72
2021/08/09 08:14:45;;;;;;;1.20;1.00;;;;;;;20.67;65.08;99144.78;263314;1090;22814;-72
2021/08/09 08:19:51;;;;;;;1.63;1.00;;;;;;;20.78;64.32;99160.64;263232;1088;22934;-71
2021/08/09 08:24:56;;;;;;;1.00;0.80;;;;;;;20.86;64.33;99156.97;262719;1089;24468;-71
2021/08/09 08:30:00;;;;;;;1.60;1.10;;;;;;;21.00;64.09;99157.34;262825;1089;22897;-71
2021/08/09 08:35:23;;;;;;;1.63;1.03;;;;;;;21.08;63.60;99157.53;263333;1090;25448;-71
2021/08/09 08:40:27;;;;;;;1.47;0.90;;;;;;;21.20;63.19;99155.52;263107;1088;22771;-71
2021/08/09 08:45:32;;;;;;;1.50;0.80;;;;;;;21.34;62.74;99163.27;263087;1090;22933;-71
2021/08/09 08:50:38;;;;;;;0.93;0.80;;;;;;;21.46;62.47;99156.14;263013;1089;26379;-71
2021/08/09 08:55:42;;;;;;;1.63;0.70;;;;;;;21.55;61.25;99147.84;263030;1089;25887;-71
2021/08/09 09:00:48;;;;;;;1.63;0.90;;;;;;;21.56;60.07;99135.77;263147;1090;22782;-71
2021/08/09 09:06:05;;;;;;;1.25;0.90;;;;;;;21.72;59.78;99141.22;262786;1090;26250;-71
2021/08/09 09:11:11;;;;;;;1.68;0.90;;;;;;;21.84;57.84;99146.57;263297;1090;22773;-70
2021/08/09 09:16:15;;;;;;;0.80;0.80;;;;;;;22.01;57.79;99140.70;263483;1088;24438;-71
2021/08/09 09:21:37;;;;;;;2.60;0.83;;;;;;;22.05;56.26;99135.34;263545;1088;22772;-71
2021/08/09 09:26:43;;;;;;;1.13;0.93;;;;;;;22.18;56.44;99138.73;263976;1088;22822;-71
2021/08/09 09:31:47;;;;;;;0.80;0.78;;;;;;;22.31;56.11;99137.43;263548;1089;23892;-72
2021/08/09 09:36:51;;;;;;;0.80;0.80;;;;;;;22.38;55.47;99145.02;263876;1089;23615;-72
2021/08/09 09:41:56;;;;;;;1.68;1.20;;;;;;;22.60;55.19;99148.97;263552;1089;25849;-72
2021/08/09 09:47:23;;;;;;;1.43;0.88;;;;;;;22.79;54.89;99141.91;264289;1090;22966;-73
2021/08/09 09:52:47;;;;;;;1.00;0.70;;;;;;;22.89;54.54;99139.38;264086;1088;22867;-71
2021/08/09 09:57:50;;;;;;;0.75;0.75;;;;;;;22.87;52.92;99141.70;264152;1090;22793;-71
2021/08/09 10:02:54;;;;;;;0.78;0.78;;;;;;;22.88;52.65;99145.20;263672;1090;25777;-71
2021/08/09 10:07:59;;;;;;;0.85;0.83;;;;;;;23.09;52.75;99138.56;263647;1089;22772;-71
2021/08/09 10:13:05;;;;;;;0.90;0.90;;;;;;;23.32;53.25;99139.38;263874;1089;25770;-70
2021/08/09 10:18:10;;;;;;;0.90;0.63;;;;;;;23.55;52.05;99142.08;263269;1089;22872;-70
2021/08/09 10:23:13;;;;;;;0.75;0.75;;;;;;;23.62;51.14;99138.67;263369;1090;22967;-71
2021/08/09 10:28:19;;;;;;;1.93;0.80;;;;;;;23.62;50.93;99130.47;263168;1089;22799;-70
2021/08/09 10:33:49;;;;;;;4.00;0.97;;;;;;;23.64;51.13;99122.67;263516;1089;26041;-71
2021/08/09 10:38:54;;;;;;;1.48;0.95;;;;;;;23.78;51.10;99126.78;263480;1089;24510;-71
2021/08/09 10:44:21;;;;;;;0.93;0.70;;;;;;;23.91;51.01;99117.25;263216;1090;25803;-71
2021/08/09 10:49:44;;;;;;;1.10;1.00;;;;;;;23.97;49.74;99118.49;263313;1090;22889;-70
2021/08/09 10:54:47;;;;;;;1.50;1.07;;;;;;;23.96;49.70;99121.60;263383;1089;24475;-70
2021/08/09 10:59:50;;;;;;;1.65;1.20;;;;;;;24.00;49.28;99127.91;263205;1089;23395;-72
2021/08/09 11:05:19;;;;;;;1.05;1.00;;;;;;;24.07;48.82;99114.32;263942;1089;26008;-71
2021/08/09 11:11:06;;;;;;;1.28;1.18;;;;;;;24.28;48.54;99118.50;264323;1089;26050;-72
2021/08/09 11:16:30;;;;;;;1.75;1.10;;;;;;;24.33;48.59;99110.75;264095;1090;22803;-72
2021/08/09 11:21:34;;;;;;;0.90;0.90;;;;;;;24.61;48.43;99115.00;269339;1088;23186;-72
2021/08/09 11:26:46;;;;;;;2.58;1.08;;;;;;;24.64;47.28;99116.19;269575;1089;23463;-72
2021/08/09 11:32:04;;;;;;;1.88;1.20;;;;;;;24.60;47.53;99116.94;269352;1089;22563;-71
2021/08/09 11:37:07;;;;;;;1.65;0.80;;;;;;;24.70;47.50;99111.96;269342;1090;22548;-72
2021/08/09 11:42:11;;;;;;;1.98;1.88;;;;;;;24.89;48.08;99110.95;269588;1088;23601;-72
2021/08/09 11:47:21;;;;;;;1.95;1.80;;;;;;;24.96;46.67;99111.05;269318;1089;22575;-71
2021/08/09 11:52:25;;;;;;;1.18;0.90;;;;;;;24.98;46.56;99116.93;269368;1089;23104;-71
2021/08/09 11:57:47;;;;;;;1.65;1.20;;;;;;;24.99;46.27;99117.70;269611;1090;22571;-72
2021/08/09 12:03:07;;;;;;;;;;;;;;;25.04;46.59;99112.70;269468;1088;22560;-72
2021/08/09 12:08:11;;;;;;;2.58;2.38;;;;;;;25.16;47.26;99111.61;269584;1089;21280;-72
2021/08/09 12:13:26;;;;;;;1.13;1.08;;;;;;;25.39;47.49;99105.97;269299;1089;22568;-71
2021/08/09 12:18:31;;;;;;;1.75;1.65;;;;;;;25.49;46.25;99106.41;269384;1088;22568;-71
2021/08/09 12:24:00;;;;;;;2.70;2.50;;;;;;;25.55;46.29;99097.45;269582;1088;23341;-71
2021/08/09 12:29:24;;;;;;;1.60;1.50;;;;;;;25.55;46.06;99089.22;269364;1088;22663;-71
2021/08/09 12:34:27;;;;;;;1.48;1.10;;;;;;;25.52;44.94;99087.25;269655;1089;22510;-71
2021/08/09 12:39:34;;;;;;;1.65;1.55;;;;;;;25.56;45.62;99084.52;269670;1089;22551;-70
2021/08/09 12:44:37;;;;;;;2.33;1.20;;;;;;;25.72;45.21;99095.98;269625;1088;22578;-71
2021/08/09 12:49:41;;;;;;;2.70;2.45;;;;;;;25.84;45.07;99091.34;269342;1089;22566;-73
2021/08/09 12:54:44;;;;;;;1.80;1.50;;;;;;;25.95;44.28;99090.24;269652;1090;22613;-73
2021/08/09 12:59:47;;;;;;;2.10;1.20;;;;;;;26.02;43.81;99094.98;269712;1088;22523;-73
2021/08/09 13:04:51;;;;;;;1.93;1.70;;;;;;;26.09;43.62;99095.05;269522;1088;22657;-73
2021/08/09 13:09:55;;;;;;;3.73;2.70;;;;;;;26.26;44.55;99093.54;269385;1090;22604;-73
2021/08/09 13:14:59;;;;;;;1.83;1.70;;;;;;;26.45;44.30;99092.41;269700;1088;22647;-73
2021/08/09 13:20:04;;;;;;;3.30;2.35;;;;;;;26.54;43.48;99086.56;269660;1088;22584;-74
2021/08/09 13:25:07;;;;;;;2.28;2.03;;;;;;;26.66;43.02;99087.38;269449;1089;23765;-73
2021/08/09 13:30:11;;;;;;;1.03;0.93;;;;;;;26.58;42.82;99089.30;269716;1089;22576;-73
2021/08/09 13:35:28;;;;;;;1.33;1.23;;;;;;;26.59;42.69;99077.15;269465;1090;22582;-73
2021/08/09 13:40:31;;;;;;;1.55;1.28;;;;;;;26.50;43.22;99076.73;269686;1089;23836;-70
2021/08/09 13:45:42;;;;;;;1.48;1.38;;;;;;;26.34;43.01;99075.11;269607;1089;22579;-74
2021/08/09 13:50:49;;;;;;;2.28;2.08;;;;;;;26.29;42.83;99073.54;269608;1089;23158;-72
2021/08/09 13:55:52;;;;;;;2.25;2.05;;;;;;;26.22;42.78;99076.27;269651;1089;22572;-70
2021/08/09 14:00:54;;;;;;;1.60;1.50;;;;;;;26.12;43.43;99074.25;269393;1088;22604;-71
2021/08/09 14:05:58;;;;;;;1.38;1.20;;;;;;;26.23;43.93;99068.80;269641;1089;22567;-71
2021/08/09 14:11:05;;;;;;;2.30;1.38;;;;;;;26.21;42.28;99073.91;269365;1089;22614;-71
2021/08/09 14:16:09;;;;;;;2.28;1.95;;;;;;;26.18;42.32;99066.45;269682;1087;22589;-71
2021/08/09 14:21:26;;;;;;;1.90;1.60;;;;;;;26.18;43.63;99066.45;269415;1089;23230;-71
2021/08/09 14:26:30;;;;;;;1.50;1.40;;;;;;;26.39;42.90;99054.75;269443;1090;22609;-71
2021/08/09 14:31:50;;;;;;;2.33;2.05;;;;;;;26.46;42.91;99050.05;269696;1090;24417;-71
2021/08/09 14:36:56;;;;;;;1.50;1.40;;;;;;;26.51;41.98;99045.34;269416;1088;22585;-71
2021/08/09 14:42:13;;;;;;;1.90;1.45;;;;;;;26.41;41.24;99036.69;269717;1089;22584;-71
2021/08/09 14:47:23;;;;;;;1.35;1.25;;;;;;;26.44;41.58;99040.61;269455;1090;23014;-71
2021/08/09 14:52:29;;;;;;;1.63;1.25;;;;;;;26.45;41.68;99042.97;269445;1088;23408;-71
2021/08/09 14:57:32;;;;;;;2.08;1.30;;;;;;;26.44;41.92;99046.91;269468;1089;22585;-71
2021/08/09 15:02:38;;;;;;;2.43;1.40;;;;;;;26.49;41.70;99040.24;269438;1088;22657;-71
2021/08/09 15:07:45;;;;;;;1.60;1.50;;;;;;;26.55;41.45;99033.18;269482;1088;22717;-71
2021/08/09 15:12:52;;;;;;;2.35;1.88;;;;;;;26.55;41.00;99018.67;269468;1090;22637;-71
2021/08/09 15:18:02;;;;;;;2.33;1.43;;;;;;;26.55;41.39;99032.41;269732;1088;22570;-71
2021/08/09 15:23:05;;;;;;;2.93;1.57;;;;;;;26.55;40.80;99035.16;269694;1089;22591;-70
2021/08/09 15:28:10;;;;;;;1.78;1.43;;;;;;;26.52;40.71;99035.94;269692;1088;22562;-70
2021/08/09 15:33:13;;;;;;;2.25;1.40;;;;;;;26.53;40.93;99030.05;269431;1088;22474;-70
2021/08/09 15:38:17;;;;;;;5.23;4.73;;;;;;;26.52;40.75;99031.22;269702;1089;22647;-70
2021/08/09 15:43:21;;;;;;;1.98;1.88;;;;;;;26.53;39.63;99030.05;269706;1089;22693;-71
2021/08/09 15:48:37;;;;;;;3.03;2.15;;;;;;;26.42;39.85;99027.28;269461;1088;23043;-71
2021/08/09 15:53:58;;;;;;;1.20;1.10;;;;;;;26.19;39.60;99019.39;269381;1090;22585;-71
2021/08/09 15:59:01;;;;;;;1.30;1.20;;;;;;;26.06;40.30;99020.91;269739;1088;22556;-71
2021/08/09 16:04:17;;;;;;;1.80;1.70;;;;;;;25.92;40.50;99030.61;269698;1089;22647;-70
2021/08/09 16:09:40;;;;;;;1.73;1.63;;;;;;;25.85;40.76;99022.36;269708;1089;22595;-70
2021/08/09 16:14:44;;;;;;;1.80;1.70;;;;;;;25.96;40.28;99019.66;269441;1089;22576;-70
2021/08/09 16:19:47;;;;;;;1.50;1.18;;;;;;;26.10;40.11;99010.73;269703;1089;22657;-70
2021/08/09 16:24:54;;;;;;;1.28;1.08;;;;;;;25.96;39.98;99003.20;269708;1089;22560;-70
2021/08/09 16:29:57;;;;;;;3.00;1.13;;;;;;;25.85;40.03;99005.89;269703;1088;22952;-70
2021/08/09 16:35:02;;;;;;;1.30;1.20;;;;;;;25.76;40.22;99002.73;269448;1090;22619;-70
2021/08/09 16:40:06;;;;;;;2.53;1.25;;;;;;;25.62;40.79;98996.00;269708;1088;24570;-71
2021/08/09 16:45:10;;;;;;;1.50;1.30;;;;;;;25.54;41.02;98988.13;269436;1088;23882;-71
2021/08/09 16:50:14;;;;;;;3.78;1.20;;;;;;;25.49;41.09;98997.52;269697;1089;22563;-71
2021/08/09 16:55:17;;;;;;;2.65;1.33;;;;;;;25.43;41.14;98991.58;269764;1088;23101;-70
2021/08/09 17:00:21;;;;;;;1.70;1.60;;;;;;;25.35;41.41;98991.93;269783;1088;22562;-71
2021/08/09 17:05:26;;;;;;;2.13;1.53;;;;;;;25.26;41.75;98982.05;269705;1089;23504;-71
2021/08/09 17:10:39;;;;;;;1.68;1.50;;;;;;;25.17;41.67;98983.56;269488;1090;23414;-70
2021/08/09 17:15:47;;;;;;;1.85;1.40;;;;;;;25.06;41.72;98988.99;269725;1089;22577;-71
2021/08/09 17:20:51;;;;;;;7.20;6.45;;;;;;;24.91;41.90;98986.13;269486;1088;22569;-71
2021/08/09 17:25:55;;;;;;;2.65;2.20;;;;;;;24.76;43.15;98968.01;269477;1089;23031;-71
2021/08/09 17:31:03;;;;;;;4.05;1.80;;;;;;;24.56;43.31;98968.20;269456;1088;22598;-71
2021/08/09 17:36:21;;;;;;;2.58;1.40;;;;;;;24.37;43.41;98971.16;269715;1089;22593;-70
2021/08/09 17:41:24;;;;;;;1.50;1.40;;;;;;;24.18;43.90;98974.89;269699;1088;23002;-70
2021/08/09 17:46:27;;;;;;;3.93;1.75;;;;;;;23.96;44.95;98974.64;269714;1089;22627;-70
2021/08/09 17:51:31;;;;;;;2.33;1.88;;;;;;;23.74;44.43;98985.31;269704;1088;22649;-71
2021/08/09 17:56:34;;;;;;;2.80;2.05;;;;;;;23.52;45.52;98981.52;269705;1088;23877;-70
2021/08/09 18:01:37;;;;;;;5.35;2.93;;;;;;;23.28;46.23;98985.48;269715;1089;22909;-71
2021/08/09 18:06:50;;;;;;;7.43;3.65;;;;;;;23.02;46.80;98984.28;269737;1089;22706;-71
2021/08/09 18:12:06;;;;;;;7.20;3.78;;;;;;;22.76;47.38;98992.44;269418;1090;22581;-71
2021/08/09 18:17:11;;;;;;;4.43;3.23;;;;;;;22.48;47.62;98994.33;269720;1088;23128;-71
2021/08/09 18:22:14;;;;;;;6.15;3.60;;;;;;;22.21;48.33;99001.59;269717;1088;22563;-70
2021/08/09 18:27:18;;;;;;;5.10;3.00;;;;;;;21.96;48.77;99006.56;269490;1089;22596;-71
2021/08/09 18:32:21;;;;;;;4.45;2.63;;;;;;;21.75;49.06;99015.09;269685;1088;22624;-71
2021/08/09 18:37:24;;;;;;;4.10;2.83;;;;;;;21.52;49.47;99015.78;269730;1088;24037;-71
2021/08/09 18:42:27;;;;;;;4.43;2.88;;;;;;;21.31;49.89;99022.30;269438;1089;22564;-71
2021/08/09 18:47:30;;;;;;;3.93;3.13;;;;;;;21.14;50.89;99026.19;269498;1088;22591;-71
2021/08/09 18:52:34;;;;;;;4.58;2.80;;;;;;;20.95;51.09;99026.89;269725;1089;23963;-71
2021/08/09 18:57:37;;;;;;;10.03;4.70;;;;;;;20.79;50.98;99032.34;269739;1089;22582;-71
2021/08/09 19:02:41;;;;;;;8.98;4.48;;;;;;;20.66;51.93;99028.08;269744;1089;22590;-70
2021/08/09 19:07:44;;;;;;;10.10;4.90;;;;;;;20.54;52.73;99028.14;269717;1089;22644;-70
2021/08/09 19:12:47;;;;;;;11.88;6.65;;;;;;;20.40;53.56;99021.20;269772;1088;22541;-70
2021/08/09 19:17:51;;;;;;;8.10;4.30;;;;;;;20.24;54.02;99028.52;269763;1090;22587;-70
2021/08/09 19:22:54;;;;;;;8.33;3.90;;;;;;;20.13;54.22;99030.94;269708;1090;22580;-71
2021/08/09 19:27:57;;;;;;;10.57;4.50;;;;;;;20.06;54.98;99033.45;269733;1088;22580;-70
2021/08/09 19:33:01;;;;;;;6.35;3.73;;;;;;;19.97;54.99;99033.61;269749;1088;22594;-74
2021/08/09 19:38:04;;;;;;;6.37;3.20;;;;;;;19.90;55.29;99038.84;269736;1089;23315;-74
2021/08/09 19:43:08;;;;;;;4.20;3.05;;;;;;;19.83;55.31;99039.42;269745;1089;22555;-75
2021/08/09 19:48:15;;;;;;;4.77;3.17;;;;;;;19.73;56.16;99029.79;269721;1088;23012;-75
2021/08/09 19:53:20;;;;;;;3.43;2.83;;;;;;;19.65;56.48;99036.14;269547;1089;22577;-75
2021/08/09 19:58:23;;;;;;;4.90;2.80;;;;;;;19.58;56.56;99028.56;269470;1088;22593;-74
2021/08/09 20:03:33;;;;;;;5.27;3.40;;;;;;;19.56;57.26;99035.47;269730;1089;22575;-74
2021/08/09 20:08:36;;;;;;;4.70;3.17;;;;;;;19.50;57.94;99032.19;269723;1088;22595;-75
2021/08/09 20:13:39;;;;;;;6.30;4.20;;;;;;;19.41;58.34;99028.83;269715;1089;22575;-74
2021/08/09 20:18:47;;;;;;;7.87;4.23;;;;;;;19.29;58.95;99027.70;269812;1089;22571;-75
2021/08/09 20:23:50;;;;;;;5.75;4.30;;;;;;;19.17;59.55;99026.89;269751;1089;22556;-75
2021/08/09 20:28:53;;;;;;;5.10;3.85;;;;;;;19.08;60.09;99027.83;269446;1089;22596;-74
2021/08/09 20:33:56;;;;;;;4.93;4.27;;;;;;;19.02;60.66;99018.30;269703;1088;22545;-74
2021/08/09 20:39:00;;;;;;;7.15;4.60;;;;;;;18.93;61.07;99025.78;269729;1089;22601;-74
2021/08/09 20:44:05;;;;;;;7.50;5.05;;;;;;;18.85;61.66;99024.70;269680;1088;23901;-73
2021/08/09 20:49:08;;;;;;;6.60;4.75;;;;;;;18.77;61.88;99025.59;269737;1088;22604;-75
2021/08/09 20:54:18;;;;;;;5.95;4.45;;;;;;;18.72;62.33;99028.52;269675;1089;22674;-75
2021/08/09 20:59:23;;;;;;;7.00;5.20;;;;;;;18.68;62.69;99033.84;269692;1088;22572;-75
2021/08/09 21:04:30;;;;;;;5.95;4.70;;;;;;;18.65;63.01;99026.38;269663;1089;23304;-75
2021/08/09 21:09:33;;;;;;;8.20;5.00;;;;;;;18.60;63.44;99030.08;269750;1089;22585;-74
2021/08/09 21:14:49;;;;;;;7.45;4.80;;;;;;;18.55;63.51;99033.02;269692;1088;22540;-74
2021/08/09 21:20:13;;;;;;;9.55;5.50;;;;;;;18.52;63.72;99028.25;269731;1088;22705;-74
2021/08/09 21:25:18;;;;;;;5.65;4.60;;;;;;;18.48;63.76;99032.75;269699;1088;22634;-74
2021/08/09 21:30:22;;;;;;;5.60;4.40;;;;;;;18.43;63.82;99020.20;269719;1090;22597;-74
2021/08/09 21:35:25;;;;;;;5.57;4.03;;;;;;;18.38;63.66;99017.70;269747;1089;23298;-75
2021/08/09 21:40:42;;;;;;;5.55;4.50;;;;;;;18.38;63.89;99012.27;269700;1089;24072;-74
2021/08/09 21:45:45;;;;;;;8.85;4.55;;;;;;;18.30;64.18;99010.46;269729;1088;22606;-74
2021/08/09 21:50:48;;;;;;;6.00;4.70;;;;;;;18.23;64.50;99013.70;269715;1088;22567;-74
2021/08/09 21:55:52;;;;;;;8.10;5.35;;;;;;;18.15;64.56;99022.71;269753;1090;22681;-74
2021/08/09 22:00:57;;;;;;;5.15;4.25;;;;;;;18.09;64.85;99022.13;269488;1088;22540;-74
2021/08/09 22:06:00;;;;;;;6.20;4.83;;;;;;;18.12;65.33;99031.52;269763;1090;22567;-74
2021/08/09 22:11:04;;;;;;;7.40;5.00;;;;;;;18.12;65.70;99020.67;269493;1088;22538;-74
2021/08/09 22:16:08;;;;;;;6.30;4.50;;;;;;;18.08;65.77;99025.17;269481;1089;22639;-74
2021/08/09 22:21:13;;;;;;;5.07;4.57;;;;;;;18.05;65.99;99028.55;269708;1088;23091;-74
2021/08/09 22:26:17;;;;;;;7.25;4.65;;;;;;;18.05;66.54;99034.75;269740;1089;23058;-74
2021/08/09 22:31:20;;;;;;;7.80;5.10;;;;;;;18.05;66.70;99028.55;269716;1089;23239;-74
2021/08/09 22:36:23;;;;;;;6.80;4.60;;;;;;;18.02;66.61;99021.88;269731;1089;22580;-74
2021/08/09 22:41:27;;;;;;;6.15;4.65;;;;;;;18.04;67.00;99030.45;269739;1089;23358;-74
2021/08/09 22:46:30;;;;;;;5.07;4.57;;;;;;;18.11;67.20;99035.34;269717;1088;22606;-74
2021/08/09 22:51:33;;;;;;;7.10;5.20;;;;;;;18.11;66.99;99033.41;269733;1089;22601;-73
2021/08/09 22:56:36;;;;;;;5.40;4.35;;;;;;;18.12;66.91;99036.94;269696;1089;23118;-74
2021/08/09 23:01:39;;;;;;;5.85;4.50;;;;;;;18.17;67.16;99044.84;269753;1088;22751;-74
2021/08/09 23:06:44;;;;;;;9.90;5.00;;;;;;;18.16;67.12;99029.73;269692;1089;23257;-74
2021/08/09 23:11:47;;;;;;;4.80;4.30;;;;;;;18.13;67.16;99052.05;269669;1088;22557;-74
2021/08/09 23:16:51;;;;;;;7.25;4.25;;;;;;;18.12;67.39;99043.14;269736;1088;22548;-74
2021/08/09 23:21:55;;;;;;;9.55;5.00;;;;;;;18.20;67.45;99043.39;269688;1089;22589;-74
2021/08/09 23:26:58;;;;;;;7.05;4.05;;;;;;;18.25;67.41;99054.83;269748;1088;23027;-74
2021/08/09 23:32:02;;;;;;;4.70;4.10;;;;;;;18.24;67.41;99061.40;269681;1090;22605;-74
2021/08/09 23:37:16;;;;;;;7.85;4.30;;;;;;;18.21;67.48;99053.91;269723;1090;22603;-75
2021/08/09 23:42:35;;;;;;;;;;;;;;;18.26;67.73;99042.86;269736;1089;22564;-75
2021/08/09 23:47:52;;;;;;;7.95;4.30;;;;;;;18.28;67.58;99040.59;269458;1089;21251;-75
2021/08/09 23:52:55;;;;;;;6.30;4.30;;;;;;;18.29;67.56;99035.98;269687;1089;22629;-74